createdAt,value
2018-03-14T00:01:31.071Z,0.80
2018-03-14T00:03:59.421Z,0.80
2018-03-14T00:06:27.835Z,0.80
2018-03-14T00:08:56.192Z,0.80
2018-03-14T00:11:25.295Z,0.80
2018-03-14T00:13:53.693Z,0.80
2018-03-14T00:16:22.083Z,0.80
2018-03-14T00:18:50.811Z,0.90
2018-03-14T00:21:19.222Z,0.90
2018-03-14T00:23:47.618Z,1.00
2018-03-14T00:26:15.996Z,1.00
2018-03-14T00:28:44.443Z,0.90
2018-03-14T00:31:13.636Z,0.90
2018-03-14T00:33:42.775Z,0.90
2018-03-14T00:36:11.172Z,0.90
2018-03-14T00:38:39.516Z,0.90
2018-03-14T00:41:07.929Z,0.90
2018-03-14T00:43:36.386Z,0.90
2018-03-14T00:46:04.712Z,0.90
2018-03-14T00:48:33.905Z,0.90
2018-03-14T00:51:02.271Z,0.90
2018-03-14T00:53:30.629Z,0.90
2018-03-14T00:55:59.138Z,0.90
2018-03-14T00:58:27.551Z,0.90
2018-03-14T01:00:55.888Z,0.80
2018-03-14T01:03:24.968Z,0.80
2018-03-14T01:05:53.320Z,0.80
2018-03-14T01:08:21.706Z,0.90
2018-03-14T01:10:50.135Z,0.90
2018-03-14T01:13:18.552Z,0.90
2018-03-14T01:15:47.759Z,0.90
2018-03-14T01:18:16.185Z,0.90
2018-03-14T01:20:44.606Z,1.00
2018-03-14T01:23:12.945Z,0.90
2018-03-14T01:25:41.331Z,0.90
2018-03-14T01:28:09.642Z,0.90
2018-03-14T01:30:38.807Z,0.90
2018-03-14T01:33:07.193Z,0.90
2018-03-14T01:35:35.601Z,0.90
2018-03-14T01:38:04.101Z,0.80
2018-03-14T01:40:32.451Z,0.90
2018-03-14T01:43:00.789Z,0.90
2018-03-14T01:45:29.126Z,0.90
2018-03-14T01:47:57.521Z,0.80
2018-03-14T01:50:25.851Z,0.80
2018-03-14T01:53:05.967Z,0.70
2018-03-14T01:55:34.356Z,0.70
2018-03-14T01:58:03.415Z,0.60
2018-03-14T02:00:31.771Z,0.60
2018-03-14T02:03:00.123Z,0.70
2018-03-14T02:05:28.618Z,0.70
2018-03-14T02:07:57.724Z,0.70
2018-03-14T02:10:26.072Z,0.70
2018-03-14T02:12:54.428Z,0.70
2018-03-14T02:15:22.791Z,0.60
2018-03-14T02:17:51.229Z,0.60
2018-03-14T02:20:20.336Z,0.50
2018-03-14T02:22:48.852Z,0.50
2018-03-14T02:25:17.343Z,0.50
2018-03-14T02:27:45.738Z,0.50
2018-03-14T02:30:14.074Z,0.50
2018-03-14T02:32:42.422Z,0.50
2018-03-14T02:35:10.955Z,0.40
2018-03-14T02:37:39.310Z,0.40
2018-03-14T02:40:07.700Z,0.40
2018-03-14T02:42:36.046Z,0.40
2018-03-14T02:45:05.290Z,0.40
2018-03-14T02:47:34.381Z,0.30
2018-03-14T02:50:02.756Z,0.30
2018-03-14T02:52:31.084Z,0.30
2018-03-14T02:54:59.377Z,0.40
2018-03-14T02:57:27.699Z,0.30
2018-03-14T02:59:55.992Z,0.30
2018-03-14T03:02:24.382Z,0.30
2018-03-14T03:04:52.784Z,0.40
2018-03-14T03:07:21.174Z,0.40
2018-03-14T03:09:49.523Z,0.40
2018-03-14T03:12:17.902Z,0.40
2018-03-14T03:14:46.300Z,0.40
2018-03-14T03:17:14.712Z,0.40
2018-03-14T03:19:43.096Z,0.40
2018-03-14T03:22:11.422Z,0.40
2018-03-14T03:24:39.784Z,0.40
2018-03-14T03:27:08.161Z,0.40
2018-03-14T03:29:37.511Z,0.40
2018-03-14T03:32:06.610Z,0.40
2018-03-14T03:34:34.946Z,0.40
2018-03-14T03:37:03.281Z,0.40
2018-03-14T03:39:31.675Z,0.40
2018-03-14T03:41:59.995Z,0.50
2018-03-14T03:44:28.308Z,0.50
2018-03-14T03:46:56.630Z,0.40
2018-03-14T03:49:24.984Z,0.40
2018-03-14T03:51:53.395Z,0.40
2018-03-14T03:54:22.561Z,0.40
2018-03-14T03:56:50.979Z,0.40
2018-03-14T03:59:19.419Z,0.40
2018-03-14T04:01:47.858Z,0.40
2018-03-14T04:04:16.283Z,0.40
2018-03-14T04:06:45.427Z,0.40
2018-03-14T04:09:14.677Z,0.40
2018-03-14T04:11:43.016Z,0.40
2018-03-14T04:14:11.343Z,0.40
2018-03-14T04:16:39.680Z,0.40
2018-03-14T04:19:08.849Z,0.40
2018-03-14T04:21:37.329Z,0.40
2018-03-14T04:24:05.684Z,0.40
2018-03-14T04:26:34.798Z,0.40
2018-03-14T04:29:04.107Z,0.30
2018-03-14T04:31:33.205Z,0.30
2018-03-14T04:34:02.437Z,0.30
2018-03-14T04:36:30.723Z,0.30
2018-03-14T04:38:59.048Z,0.30
2018-03-14T04:41:27.367Z,0.30
2018-03-14T04:43:55.708Z,0.30
2018-03-14T04:46:24.106Z,0.30
2018-03-14T04:48:52.456Z,0.40
2018-03-14T04:51:20.850Z,0.30
2018-03-14T04:53:50.035Z,0.40
2018-03-14T04:56:18.458Z,0.40
2018-03-14T04:58:47.361Z,0.40
2018-03-14T05:01:15.740Z,0.40
2018-03-14T05:03:44.119Z,0.40
2018-03-14T05:06:12.455Z,0.40
2018-03-14T05:08:40.852Z,0.50
2018-03-14T05:11:09.265Z,0.50
2018-03-14T05:13:37.638Z,0.50
2018-03-14T05:16:06.003Z,0.50
2018-03-14T05:18:35.096Z,0.40
2018-03-14T05:21:03.442Z,0.40
2018-03-14T05:23:31.787Z,0.40
2018-03-14T05:26:00.109Z,0.40
2018-03-14T05:28:28.589Z,0.40
2018-03-14T05:30:58.084Z,0.40
2018-03-14T05:33:27.237Z,0.40
2018-03-14T05:35:55.645Z,0.40
2018-03-14T05:38:24.039Z,0.40
2018-03-14T05:40:52.374Z,0.40
2018-03-14T05:43:20.720Z,0.40
2018-03-14T05:45:49.088Z,0.40
2018-03-14T05:48:17.509Z,0.40
2018-03-14T05:50:45.956Z,0.40
2018-03-14T05:53:14.303Z,0.40
2018-03-14T05:55:42.649Z,0.40
2018-03-14T05:58:11.000Z,0.40
2018-03-14T06:00:39.355Z,0.40
2018-03-14T06:03:07.780Z,0.40
2018-03-14T06:05:36.134Z,0.40
2018-03-14T06:08:04.530Z,0.40
2018-03-14T06:10:32.856Z,0.50
2018-03-14T06:13:01.204Z,0.40
2018-03-14T06:15:29.535Z,0.50
2018-03-14T06:17:57.915Z,0.40
2018-03-14T06:20:26.251Z,0.40
2018-03-14T06:22:54.634Z,0.50
2018-03-14T06:25:23.082Z,0.50
2018-03-14T06:27:51.521Z,0.50
2018-03-14T06:30:20.706Z,0.40
2018-03-14T06:32:49.115Z,0.40
2018-03-14T06:35:17.547Z,0.40
2018-03-14T06:37:45.972Z,0.40
2018-03-14T06:40:15.221Z,0.40
2018-03-14T06:42:43.680Z,0.50
2018-03-14T06:45:12.058Z,0.60
2018-03-14T06:47:40.459Z,0.60
2018-03-14T06:50:08.883Z,0.60
2018-03-14T06:52:37.358Z,0.60
2018-03-14T06:55:05.761Z,0.60
2018-03-14T06:57:34.092Z,0.60
2018-03-14T07:00:14.172Z,0.70
2018-03-14T07:02:48.594Z,0.70
2018-03-14T07:05:28.677Z,0.70
2018-03-14T07:07:57.028Z,0.70
2018-03-14T07:10:26.175Z,0.70
2018-03-14T07:12:54.536Z,0.70
2018-03-14T07:15:22.937Z,0.70
2018-03-14T07:17:52.162Z,0.80
2018-03-14T07:20:21.273Z,0.80
2018-03-14T07:22:49.680Z,0.80
2018-03-14T07:25:18.131Z,0.80
2018-03-14T07:27:46.612Z,0.90
2018-03-14T07:30:15.146Z,0.90
2018-03-14T07:32:43.491Z,1.00
2018-03-14T07:35:12.643Z,1.10
2018-03-14T07:37:41.310Z,1.10
2018-03-14T07:40:09.784Z,1.00
2018-03-14T07:42:38.148Z,1.10
2018-03-14T07:45:06.487Z,1.20
2018-03-14T07:47:35.602Z,1.10
2018-03-14T07:50:03.931Z,1.10
2018-03-14T07:52:32.382Z,1.10
2018-03-14T07:55:00.752Z,1.10
2018-03-14T07:57:29.135Z,1.20
2018-03-14T07:59:57.467Z,1.10
2018-03-14T08:02:26.585Z,1.20
2018-03-14T08:04:55.681Z,1.20
2018-03-14T08:07:24.032Z,1.20
2018-03-14T08:09:52.439Z,1.20
2018-03-14T08:12:20.840Z,1.20
2018-03-14T08:14:49.215Z,1.20
2018-03-14T08:17:17.655Z,1.30
2018-03-14T08:19:46.802Z,1.30
2018-03-14T08:22:15.404Z,1.20
2018-03-14T08:24:44.596Z,1.20
2018-03-14T08:27:13.030Z,1.20
2018-03-14T08:29:41.392Z,1.30
2018-03-14T08:32:09.801Z,1.30
2018-03-14T08:34:38.194Z,1.30
2018-03-14T08:37:06.567Z,1.40
2018-03-14T08:39:34.982Z,1.40
2018-03-14T08:42:03.322Z,1.40
2018-03-14T08:44:32.434Z,1.60
2018-03-14T08:47:01.526Z,1.60
2018-03-14T08:49:30.630Z,1.70
2018-03-14T08:51:59.122Z,1.70
2018-03-14T08:54:27.468Z,1.70
2018-03-14T08:56:55.830Z,1.80
2018-03-14T08:59:24.923Z,1.80
2018-03-14T09:01:54.031Z,1.80
2018-03-14T09:04:23.221Z,1.70
2018-03-14T09:06:51.579Z,1.70
2018-03-14T09:09:20.863Z,1.60
2018-03-14T09:11:49.302Z,1.70
2018-03-14T09:14:17.771Z,1.70
2018-03-14T09:16:47.077Z,1.60
2018-03-14T09:19:15.535Z,1.60
2018-03-14T09:21:45.542Z,1.60
2018-03-14T09:24:13.920Z,1.60
2018-03-14T09:26:42.259Z,1.60
2018-03-14T09:29:11.438Z,1.70
2018-03-14T09:31:39.836Z,1.70
2018-03-14T09:34:08.313Z,1.80
2018-03-14T09:36:36.775Z,1.80
2018-03-14T09:39:05.122Z,1.90
2018-03-14T09:41:33.529Z,1.90
2018-03-14T09:44:01.878Z,1.90
2018-03-14T09:46:30.212Z,2.00
2018-03-14T09:48:59.319Z,2.20
2018-03-14T09:51:27.730Z,2.20
2018-03-14T09:53:57.213Z,2.30
2018-03-14T09:56:26.578Z,2.30
2018-03-14T09:58:55.839Z,2.50
2018-03-14T10:01:24.514Z,2.50
2018-03-14T10:03:53.316Z,2.50
2018-03-14T10:06:22.503Z,2.50
2018-03-14T10:08:51.951Z,2.50
2018-03-14T10:11:20.411Z,2.40
2018-03-14T10:13:49.158Z,2.40
2018-03-14T10:16:17.620Z,2.50
2018-03-14T10:18:46.118Z,2.60
2018-03-14T10:21:14.495Z,2.70
2018-03-14T10:23:43.755Z,2.80
2018-03-14T10:26:12.132Z,2.80
2018-03-14T10:28:40.537Z,2.80
2018-03-14T10:31:08.928Z,2.90
2018-03-14T10:33:37.307Z,3.00
2018-03-14T10:36:05.651Z,3.00
2018-03-14T10:38:33.988Z,2.90
2018-03-14T10:41:02.385Z,2.90
2018-03-14T10:43:30.802Z,2.90
2018-03-14T10:45:59.122Z,2.90
2018-03-14T10:48:27.445Z,3.00
2018-03-14T10:50:55.789Z,3.10
2018-03-14T10:53:24.892Z,3.20
2018-03-14T10:55:54.102Z,3.20
2018-03-14T10:58:23.268Z,3.10
2018-03-14T11:00:56.643Z,3.10
2018-03-14T11:03:31.406Z,3.20
2018-03-14T11:05:59.863Z,3.30
2018-03-14T11:08:29.182Z,3.40
2018-03-14T11:10:58.336Z,3.90
2018-03-14T11:13:26.662Z,3.90
2018-03-14T11:15:54.997Z,4.20
2018-03-14T11:18:23.539Z,4.40
2018-03-14T11:20:51.947Z,4.70
2018-03-14T11:23:20.374Z,5.00
2018-03-14T11:25:48.886Z,5.10
2018-03-14T11:28:17.291Z,4.80
2018-03-14T11:30:45.979Z,4.50
2018-03-14T11:33:14.609Z,4.10
2018-03-14T11:35:42.966Z,4.00
2018-03-14T11:38:11.323Z,3.90
2018-03-14T11:40:40.438Z,3.90
2018-03-14T11:43:08.857Z,3.90
2018-03-14T11:45:37.264Z,4.10
2018-03-14T11:48:05.584Z,4.20
2018-03-14T11:50:33.954Z,4.10
2018-03-14T11:53:02.290Z,4.10
2018-03-14T11:55:31.464Z,5.10
2018-03-14T11:57:59.794Z,5.10
2018-03-14T12:00:28.911Z,4.90
2018-03-14T12:02:57.248Z,4.90
2018-03-14T12:05:25.585Z,4.60
2018-03-14T12:07:54.749Z,4.50
2018-03-14T12:10:23.092Z,4.50
2018-03-14T12:12:51.495Z,4.30
2018-03-14T12:15:19.928Z,4.40
2018-03-14T12:17:48.327Z,4.30
2018-03-14T12:20:16.827Z,4.70
2018-03-14T12:22:45.280Z,5.00
2018-03-14T12:25:13.622Z,5.30
2018-03-14T12:27:41.994Z,5.20
2018-03-14T12:30:10.338Z,5.00
2018-03-14T12:32:38.746Z,5.10
2018-03-14T12:35:07.081Z,5.10
2018-03-14T12:37:35.423Z,5.40
2018-03-14T12:40:03.777Z,5.50
2018-03-14T12:42:32.887Z,5.20
2018-03-14T12:45:02.057Z,5.20
2018-03-14T12:47:30.380Z,5.20
2018-03-14T12:49:58.842Z,5.20
2018-03-14T12:52:27.437Z,5.10
2018-03-14T12:54:55.772Z,4.80
2018-03-14T12:57:24.218Z,4.70
2018-03-14T12:59:52.608Z,5.20
2018-03-14T13:02:21.016Z,5.50
2018-03-14T13:04:49.395Z,5.60
2018-03-14T13:07:17.855Z,5.60
2018-03-14T13:09:46.307Z,5.60
2018-03-14T13:12:14.798Z,5.30
2018-03-14T13:14:43.195Z,5.20
2018-03-14T13:17:11.606Z,5.10
2018-03-14T13:19:39.984Z,5.30
2018-03-14T13:22:08.391Z,5.30
2018-03-14T13:24:36.725Z,5.20
2018-03-14T13:27:05.062Z,5.20
2018-03-14T13:29:33.390Z,5.50
2018-03-14T13:32:01.773Z,5.30
2018-03-14T13:34:30.955Z,5.10
2018-03-14T13:37:00.060Z,5.20
2018-03-14T13:39:28.459Z,5.20
2018-03-14T13:41:56.918Z,5.10
2018-03-14T13:44:25.297Z,5.00
2018-03-14T13:46:53.709Z,5.00
2018-03-14T13:49:22.103Z,5.10
2018-03-14T13:51:50.676Z,5.20
2018-03-14T13:54:19.122Z,5.10
2018-03-14T13:56:47.808Z,5.10
2018-03-14T13:59:16.277Z,5.00
2018-03-14T14:01:44.923Z,5.00
2018-03-14T14:04:14.126Z,4.70
2018-03-14T14:06:42.497Z,4.80
2018-03-14T14:09:10.852Z,5.00
2018-03-14T14:11:39.163Z,5.30
2018-03-14T14:14:08.290Z,5.10
2018-03-14T14:16:36.760Z,5.10
2018-03-14T14:19:05.093Z,5.00
2018-03-14T14:21:33.426Z,4.80
2018-03-14T14:24:01.759Z,4.80
2018-03-14T14:26:30.092Z,4.80
2018-03-14T14:28:59.242Z,4.60
2018-03-14T14:31:27.575Z,4.60
2018-03-14T14:33:56.811Z,5.90
2018-03-14T14:36:26.059Z,5.80
2018-03-14T14:38:54.428Z,7.50
2018-03-14T14:41:23.057Z,8.80
2018-03-14T14:43:51.388Z,9.80
2018-03-14T14:46:20.584Z,10.70
2018-03-14T14:48:49.238Z,10.70
2018-03-14T14:51:18.612Z,11.30
2018-03-14T14:53:47.579Z,11.30
2018-03-14T14:56:16.147Z,10.90
2018-03-14T14:58:44.561Z,11.20
2018-03-14T15:01:12.992Z,11.30
2018-03-14T15:03:41.378Z,12.00
2018-03-14T15:06:09.879Z,11.80
2018-03-14T15:08:39.077Z,11.90
2018-03-14T15:11:07.454Z,11.90
2018-03-14T15:13:35.796Z,11.70
2018-03-14T15:16:04.135Z,11.80
2018-03-14T15:18:32.886Z,12.30
2018-03-14T15:21:01.207Z,12.70
2018-03-14T15:23:29.556Z,13.10
2018-03-14T15:25:58.860Z,12.30
2018-03-14T15:28:28.005Z,12.10
2018-03-14T15:30:57.203Z,11.90
2018-03-14T15:33:25.617Z,11.90
2018-03-14T15:35:54.551Z,11.60
2018-03-14T15:38:23.045Z,11.60
2018-03-14T15:40:51.544Z,11.80
2018-03-14T15:43:20.050Z,11.80
2018-03-14T15:45:49.326Z,12.10
2018-03-14T15:48:18.107Z,12.00
2018-03-14T15:50:47.444Z,11.40
2018-03-14T15:53:16.999Z,11.30
2018-03-14T15:55:46.550Z,11.30
2018-03-14T15:58:15.312Z,10.90
2018-03-14T16:00:43.704Z,10.60
2018-03-14T16:03:12.247Z,9.80
2018-03-14T16:05:40.576Z,9.70
2018-03-14T16:08:09.006Z,9.20
2018-03-14T16:10:37.415Z,8.90
2018-03-14T16:13:05.730Z,8.80
2018-03-14T16:15:34.233Z,8.70
2018-03-14T16:18:02.552Z,8.40
2018-03-14T16:20:30.892Z,8.00
2018-03-14T16:22:59.258Z,7.50
2018-03-14T16:25:27.745Z,6.80
2018-03-14T16:27:56.940Z,6.00
2018-03-14T16:30:25.296Z,6.00
2018-03-14T16:32:53.722Z,5.80
2018-03-14T16:35:22.390Z,5.50
2018-03-14T16:37:51.744Z,5.20
2018-03-14T16:40:20.182Z,5.20
2018-03-14T16:42:48.759Z,5.00
2018-03-14T16:45:17.224Z,4.70
2018-03-14T16:47:45.744Z,4.40
2018-03-14T16:50:14.351Z,4.20
2018-03-14T16:52:42.699Z,4.10
2018-03-14T16:55:11.079Z,3.90
2018-03-14T16:57:39.398Z,3.80
2018-03-14T17:00:07.730Z,3.70
2018-03-14T17:02:36.082Z,3.40
2018-03-14T17:05:04.423Z,3.20
2018-03-14T17:07:32.843Z,2.90
2018-03-14T17:10:01.188Z,2.70
2018-03-14T17:12:29.533Z,2.60
2018-03-14T17:14:57.938Z,2.40
2018-03-14T17:17:27.064Z,2.10
2018-03-14T17:19:55.516Z,2.10
2018-03-14T17:22:24.783Z,2.00
2018-03-14T17:24:53.277Z,1.80
2018-03-14T17:27:21.794Z,1.70
2018-03-14T17:29:50.199Z,1.40
2018-03-14T17:32:18.558Z,1.30
2018-03-14T17:34:47.205Z,1.20
2018-03-14T17:37:16.457Z,1.10
2018-03-14T17:39:45.028Z,1.00
2018-03-14T17:42:13.567Z,0.80
2018-03-14T17:44:42.678Z,0.60
2018-03-14T17:47:11.052Z,0.60
2018-03-14T17:49:39.417Z,0.60
2018-03-14T17:52:07.900Z,0.70
2018-03-14T17:54:36.269Z,0.60
2018-03-14T17:57:04.639Z,0.40
2018-03-14T17:59:33.008Z,0.30
2018-03-14T18:02:02.152Z,0.20
2018-03-14T18:04:30.879Z,0.20
2018-03-14T18:06:59.245Z,0.00
2018-03-14T18:09:27.812Z,0.00
2018-03-14T18:11:56.310Z,-0.10
2018-03-14T18:14:24.746Z,-0.10
2018-03-14T18:16:53.247Z,0.00
2018-03-14T18:19:21.633Z,0.00
2018-03-14T18:21:50.094Z,-0.20
2018-03-14T18:24:18.585Z,-0.30
2018-03-14T18:26:47.154Z,-0.40
2018-03-14T18:29:15.719Z,-0.50
2018-03-14T18:31:45.003Z,-0.50
2018-03-14T18:34:14.305Z,-0.50
2018-03-14T18:36:42.692Z,-0.50
2018-03-14T18:39:11.045Z,-0.50
2018-03-14T18:41:39.463Z,-0.60
2018-03-14T18:44:08.565Z,-0.80
2018-03-14T18:46:37.729Z,-0.80
2018-03-14T18:49:06.168Z,-0.80
2018-03-14T18:51:35.268Z,-0.70
2018-03-14T18:54:04.385Z,-0.80
2018-03-14T18:56:33.495Z,-0.90
2018-03-14T18:59:02.652Z,-0.90
2018-03-14T19:01:31.008Z,-0.90
2018-03-14T19:04:00.124Z,-0.80
2018-03-14T19:06:28.451Z,-0.80
2018-03-14T19:08:56.805Z,-0.90
2018-03-14T19:11:25.251Z,-0.90
2018-03-14T19:13:53.797Z,-1.00
2018-03-14T19:16:22.230Z,-1.20
2018-03-14T19:18:50.669Z,-1.30
2018-03-14T19:21:19.862Z,-1.40
2018-03-14T19:23:49.089Z,-1.20
2018-03-14T19:26:17.642Z,-1.30
2018-03-14T19:28:46.201Z,-1.40
2018-03-14T19:31:14.684Z,-1.60
2018-03-14T19:33:43.120Z,-1.60
2018-03-14T19:36:11.506Z,-1.70
2018-03-14T19:38:39.948Z,-1.70
2018-03-14T19:41:09.096Z,-1.80
2018-03-14T19:43:37.438Z,-1.80
2018-03-14T19:46:05.772Z,-1.80
2018-03-14T19:48:34.203Z,-1.80
2018-03-14T19:51:02.643Z,-1.90
2018-03-14T19:53:31.012Z,-2.00
2018-03-14T19:55:59.449Z,-2.00
2018-03-14T19:58:27.770Z,-2.00
2018-03-14T20:00:56.185Z,-2.00
2018-03-14T20:03:24.597Z,-2.00
2018-03-14T20:05:53.012Z,-2.10
2018-03-14T20:08:21.501Z,-2.10
2018-03-14T20:10:50.035Z,-2.20
2018-03-14T20:13:18.855Z,-2.20
2018-03-14T20:15:47.410Z,-1.90
2018-03-14T20:18:15.856Z,-1.90
2018-03-14T20:20:44.238Z,-2.00
2018-03-14T20:23:12.581Z,-2.10
2018-03-14T20:25:41.082Z,-2.00
2018-03-14T20:28:09.497Z,-1.90
2018-03-14T20:30:37.864Z,-2.10
2018-03-14T20:33:06.280Z,-2.00
2018-03-14T20:35:34.671Z,-2.00
2018-03-14T20:38:03.073Z,-2.00
2018-03-14T20:40:31.420Z,-2.00
2018-03-14T20:42:59.745Z,-2.00
2018-03-14T20:45:28.087Z,-2.20
2018-03-14T20:47:56.517Z,-2.20
2018-03-14T20:50:24.915Z,-2.20
2018-03-14T20:52:53.368Z,-2.10
2018-03-14T20:55:21.750Z,-1.90
2018-03-14T20:57:51.015Z,-1.70
2018-03-14T21:00:19.460Z,-1.80
2018-03-14T21:02:47.950Z,-1.80
2018-03-14T21:05:16.399Z,-1.80
2018-03-14T21:07:45.760Z,-1.90
2018-03-14T21:10:14.154Z,-1.90
2018-03-14T21:12:42.515Z,-1.90
2018-03-14T21:15:10.932Z,-1.80
2018-03-14T21:17:40.099Z,-1.90
2018-03-14T21:20:08.455Z,-1.90
2018-03-14T21:22:36.796Z,-1.90
2018-03-14T21:25:05.135Z,-1.90
2018-03-14T21:27:33.471Z,-1.80
2018-03-14T21:30:01.897Z,-1.70
2018-03-14T21:32:31.046Z,-1.50
2018-03-14T21:34:59.374Z,-1.50
2018-03-14T21:37:27.716Z,-1.40
2018-03-14T21:39:56.060Z,-1.40
2018-03-14T21:42:24.422Z,-1.50
2018-03-14T21:44:52.851Z,-1.40
2018-03-14T21:47:22.001Z,-1.20
2018-03-14T21:49:50.448Z,-1.20
2018-03-14T21:52:18.796Z,-1.10
2018-03-14T21:54:47.985Z,-0.80
2018-03-14T21:57:18.231Z,-0.80
2018-03-14T21:59:46.633Z,-0.70
2018-03-14T22:02:15.224Z,-0.50
2018-03-14T22:04:43.615Z,-0.50
2018-03-14T22:07:11.968Z,-0.40
2018-03-14T22:09:40.289Z,-0.20
2018-03-14T22:12:08.642Z,-0.10
2018-03-14T22:14:37.035Z,-0.10
2018-03-14T22:17:05.371Z,-0.10
2018-03-14T22:19:33.699Z,-0.20
2018-03-14T22:22:02.057Z,-0.10
2018-03-14T22:24:30.454Z,-0.20
2018-03-14T22:26:58.857Z,-0.10
2018-03-14T22:29:27.189Z,-0.20
2018-03-14T22:31:55.523Z,-0.20
2018-03-14T22:34:23.857Z,-0.10
2018-03-14T22:36:52.239Z,-0.20
2018-03-14T22:39:20.669Z,-0.20
2018-03-14T22:41:49.116Z,-0.30
2018-03-14T22:44:17.528Z,-0.30
2018-03-14T22:46:45.899Z,-0.40
2018-03-14T22:49:14.280Z,-0.30
2018-03-14T22:51:42.695Z,-0.30
2018-03-14T22:54:11.103Z,-0.20
2018-03-14T22:56:39.439Z,-0.30
2018-03-14T22:59:07.764Z,-0.30
2018-03-14T23:01:36.096Z,-0.30
2018-03-14T23:04:05.216Z,-0.20
2018-03-14T23:06:34.310Z,-0.30
2018-03-14T23:09:03.564Z,-0.30
2018-03-14T23:11:31.909Z,-0.30
2018-03-14T23:14:06.142Z,-0.20
2018-03-14T23:16:35.237Z,-0.20
2018-03-14T23:19:03.563Z,-0.20
2018-03-14T23:21:31.983Z,-0.20
2018-03-14T23:24:00.317Z,-0.10
2018-03-14T23:26:28.704Z,-0.10
2018-03-14T23:28:57.067Z,-0.20
2018-03-14T23:31:25.492Z,0.00
2018-03-14T23:33:53.835Z,-0.10
2018-03-14T23:36:22.213Z,-0.20
2018-03-14T23:38:50.689Z,-0.10
2018-03-14T23:41:19.803Z,-0.10
2018-03-14T23:43:48.201Z,-0.10
2018-03-14T23:46:16.710Z,-0.10
2018-03-14T23:48:45.175Z,-0.10
2018-03-14T23:51:13.704Z,0.00
2018-03-14T23:53:42.142Z,-0.10
2018-03-14T23:56:10.470Z,-0.10
2018-03-14T23:58:38.831Z,-0.10
